sensor_id;sensor_type;location;lat;lon;timestamp;pressure;altitude;pressure_sealevel;temperature;humidity
6032;BME280;3044;43.232;27.972;2023-12-20T00:02:10;45199.50;;;-143.84;87.14
6032;BME280;3044;43.232;27.972;2023-12-20T00:04:37;45146.19;;;-143.84;87.23
6032;BME280;3044;43.232;27.972;2023-12-20T00:07:05;45167.13;;;-143.84;86.84
6032;BME280;3044;43.232;27.972;2023-12-20T00:09:32;45180.47;;;-143.84;86.57
6032;BME280;3044;43.232;27.972;2023-12-20T00:11:59;45191.88;;;-143.84;85.94
6032;BME280;3044;43.232;27.972;2023-12-20T00:14:26;45193.78;;;-143.84;84.95
6032;BME280;3044;43.232;27.972;2023-12-20T00:16:53;45163.31;;;-143.84;84.47
6032;BME280;3044;43.232;27.972;2023-12-20T00:19:22;45146.19;;;-143.84;84.11
6032;BME280;3044;43.232;27.972;2023-12-20T00:21:49;45167.13;;;-143.84;82.66
6032;BME280;3044;43.232;27.972;2023-12-20T00:24:16;45186.16;;;-143.84;81.05
6032;BME280;3044;43.232;27.972;2023-12-20T00:26:43;45180.47;;;-143.84;80.77
6032;BME280;3044;43.232;27.972;2023-12-20T00:29:10;45163.31;;;-143.84;79.96
6032;BME280;3044;43.232;27.972;2023-12-20T00:31:38;45186.16;;;-143.84;79.90
6032;BME280;3044;43.232;27.972;2023-12-20T00:34:05;45176.66;;;-143.84;79.59
6032;BME280;3044;43.232;27.972;2023-12-20T00:36:33;45157.59;;;-143.84;79.30
6032;BME280;3044;43.232;27.972;2023-12-20T00:39:00;45197.59;;;-143.84;79.11
6032;BME280;3044;43.232;27.972;2023-12-20T00:41:28;45180.47;;;-143.84;78.23
6032;BME280;3044;43.232;27.972;2023-12-20T00:43:55;45180.47;;;-143.84;77.88
6032;BME280;3044;43.232;27.972;2023-12-20T00:46:22;45176.66;;;-143.84;78.36
6032;BME280;3044;43.232;27.972;2023-12-20T00:48:49;45191.88;;;-143.84;78.49
6032;BME280;3044;43.232;27.972;2023-12-20T00:51:16;45167.13;;;-143.84;78.63
6032;BME280;3044;43.232;27.972;2023-12-20T00:53:45;45167.13;;;-143.84;78.63
6032;BME280;3044;43.232;27.972;2023-12-20T00:56:14;45169.03;;;-143.84;79.19
6032;BME280;3044;43.232;27.972;2023-12-20T00:58:42;45163.31;;;-143.84;78.99
6032;BME280;3044;43.232;27.972;2023-12-20T01:01:09;45169.03;;;-143.84;79.08
6032;BME280;3044;43.232;27.972;2023-12-20T01:03:36;45169.03;;;-143.84;78.86
6032;BME280;3044;43.232;27.972;2023-12-20T01:06:03;45170.94;;;-143.84;78.62
6032;BME280;3044;43.232;27.972;2023-12-20T01:08:31;45186.16;;;-143.84;78.40
6032;BME280;3044;43.232;27.972;2023-12-20T01:11:03;45144.28;;;-143.84;78.06
6032;BME280;3044;43.232;27.972;2023-12-20T01:13:30;45188.06;;;-143.84;78.41
6032;BME280;3044;43.232;27.972;2023-12-20T01:15:58;45170.94;;;-143.84;78.40
6032;BME280;3044;43.232;27.972;2023-12-20T01:18:25;45167.13;;;-143.84;78.20
6032;BME280;3044;43.232;27.972;2023-12-20T01:20:52;45201.41;;;-143.84;78.20
6032;BME280;3044;43.232;27.972;2023-12-20T01:23:19;45186.16;;;-143.84;77.74
6032;BME280;3044;43.232;27.972;2023-12-20T01:25:46;45178.56;;;-143.84;77.39
6032;BME280;3044;43.232;27.972;2023-12-20T01:28:14;45150.00;;;-143.84;76.97
6032;BME280;3044;43.232;27.972;2023-12-20T01:30:42;45161.41;;;-143.84;76.64
6032;BME280;3044;43.232;27.972;2023-12-20T01:33:09;45170.94;;;-143.84;76.66
6032;BME280;3044;43.232;27.972;2023-12-20T01:35:36;45170.94;;;-143.84;76.49
6032;BME280;3044;43.232;27.972;2023-12-20T01:38:03;45184.25;;;-143.84;76.10
6032;BME280;3044;43.232;27.972;2023-12-20T01:40:30;45178.56;;;-143.84;75.81
6032;BME280;3044;43.232;27.972;2023-12-20T01:42:58;45178.56;;;-143.84;75.62
6032;BME280;3044;43.232;27.972;2023-12-20T01:45:27;45195.69;;;-143.84;74.69
6032;BME280;3044;43.232;27.972;2023-12-20T01:47:55;45174.75;;;-143.84;74.81
6032;BME280;3044;43.232;27.972;2023-12-20T01:50:23;45184.25;;;-143.84;74.55
6032;BME280;3044;43.232;27.972;2023-12-20T01:52:50;45197.59;;;-143.84;74.27
6032;BME280;3044;43.232;27.972;2023-12-20T01:55:21;45174.75;;;-143.84;73.79
6032;BME280;3044;43.232;27.972;2023-12-20T01:57:49;45174.75;;;-143.84;73.09
6032;BME280;3044;43.232;27.972;2023-12-20T02:00:16;45153.81;;;-143.84;72.42
6032;BME280;3044;43.232;27.972;2023-12-20T02:02:50;45174.75;;;-143.84;72.21
6032;BME280;3044;43.232;27.972;2023-12-20T02:05:20;45180.47;;;-143.84;72.19
6032;BME280;3044;43.232;27.972;2023-12-20T02:07:47;45180.47;;;-143.84;72.53
6032;BME280;3044;43.232;27.972;2023-12-20T02:10:15;45174.75;;;-143.84;72.32
6032;BME280;3044;43.232;27.972;2023-12-20T02:12:42;45186.16;;;-143.84;72.48
6032;BME280;3044;43.232;27.972;2023-12-20T02:15:10;45172.84;;;-143.84;72.89
6032;BME280;3044;43.232;27.972;2023-12-20T02:17:36;45161.41;;;-143.84;71.31
6032;BME280;3044;43.232;27.972;2023-12-20T02:20:06;45167.13;;;-143.84;69.94
6032;BME280;3044;43.232;27.972;2023-12-20T02:22:35;45201.41;;;-143.84;69.25
6032;BME280;3044;43.232;27.972;2023-12-20T02:25:02;45199.50;;;-143.84;68.68
6032;BME280;3044;43.232;27.972;2023-12-20T02:27:29;45178.56;;;-143.84;68.52
6032;BME280;3044;43.232;27.972;2023-12-20T02:29:57;45174.75;;;-143.84;68.57
6032;BME280;3044;43.232;27.972;2023-12-20T02:32:25;45184.25;;;-143.84;67.94
6032;BME280;3044;43.232;27.972;2023-12-20T02:34:54;45150.00;;;-143.84;63.85
6032;BME280;3044;43.232;27.972;2023-12-20T02:37:21;45170.94;;;-143.84;60.40
6032;BME280;3044;43.232;27.972;2023-12-20T02:39:50;45191.88;;;-143.84;58.64
6032;BME280;3044;43.232;27.972;2023-12-20T02:42:17;45178.56;;;-143.84;58.04
6032;BME280;3044;43.232;27.972;2023-12-20T02:44:44;45174.75;;;-143.84;57.82
6032;BME280;3044;43.232;27.972;2023-12-20T02:47:11;45193.78;;;-143.84;57.66
6032;BME280;3044;43.232;27.972;2023-12-20T02:49:38;45184.25;;;-143.84;56.91
6032;BME280;3044;43.232;27.972;2023-12-20T02:52:05;45176.66;;;-143.84;57.61
6032;BME280;3044;43.232;27.972;2023-12-20T02:54:32;45146.19;;;-143.84;58.90
6032;BME280;3044;43.232;27.972;2023-12-20T02:57:01;45170.94;;;-143.84;59.41
6032;BME280;3044;43.232;27.972;2023-12-20T02:59:28;45193.78;;;-143.84;59.52
6032;BME280;3044;43.232;27.972;2023-12-20T03:01:55;45186.16;;;-143.84;59.47
6032;BME280;3044;43.232;27.972;2023-12-20T03:04:22;45176.66;;;-143.84;59.95
6032;BME280;3044;43.232;27.972;2023-12-20T03:06:49;45180.47;;;-143.84;59.89
6032;BME280;3044;43.232;27.972;2023-12-20T03:09:17;45148.09;;;-143.84;59.83
6032;BME280;3044;43.232;27.972;2023-12-20T03:11:44;45184.25;;;-143.84;60.20
6032;BME280;3044;43.232;27.972;2023-12-20T03:14:12;45176.66;;;-143.84;59.30
6032;BME280;3044;43.232;27.972;2023-12-20T03:16:39;45186.16;;;-143.84;58.86
6032;BME280;3044;43.232;27.972;2023-12-20T03:19:06;45201.41;;;-143.84;58.64
6032;BME280;3044;43.232;27.972;2023-12-20T03:21:33;45188.06;;;-143.84;57.75
6032;BME280;3044;43.232;27.972;2023-12-20T03:24:01;45161.41;;;-143.84;56.50
6032;BME280;3044;43.232;27.972;2023-12-20T03:26:28;45184.25;;;-143.84;56.03
6032;BME280;3044;43.232;27.972;2023-12-20T03:28:57;45180.47;;;-143.84;55.69
6032;BME280;3044;43.232;27.972;2023-12-20T03:31:26;45178.56;;;-143.84;55.33
6032;BME280;3044;43.232;27.972;2023-12-20T03:33:53;45197.59;;;-143.84;58.15
6032;BME280;3044;43.232;27.972;2023-12-20T03:36:20;45167.13;;;-143.84;64.57
6032;BME280;3044;43.232;27.972;2023-12-20T03:38:47;45180.47;;;-143.84;66.29
6032;BME280;3044;43.232;27.972;2023-12-20T03:41:14;45167.13;;;-143.84;66.57
6032;BME280;3044;43.232;27.972;2023-12-20T03:43:41;45161.41;;;-143.84;67.99
6032;BME280;3044;43.232;27.972;2023-12-20T03:46:08;45150.00;;;-143.84;68.23
6032;BME280;3044;43.232;27.972;2023-12-20T03:48:37;45174.75;;;-143.84;66.18
6032;BME280;3044;43.232;27.972;2023-12-20T03:51:04;45195.69;;;-143.84;63.07
6032;BME280;3044;43.232;27.972;2023-12-20T03:53:31;45172.84;;;-143.84;63.11
6032;BME280;3044;43.232;27.972;2023-12-20T03:55:59;45178.56;;;-143.84;63.27
6032;BME280;3044;43.232;27.972;2023-12-20T03:58:26;45189.97;;;-143.84;61.72
6032;BME280;3044;43.232;27.972;2023-12-20T04:00:53;45163.31;;;-143.84;60.37
6032;BME280;3044;43.232;27.972;2023-12-20T04:03:20;45184.25;;;-143.84;60.30
6032;BME280;3044;43.232;27.972;2023-12-20T04:05:48;45163.31;;;-143.84;60.42
6032;BME280;3044;43.232;27.972;2023-12-20T04:08:16;45184.25;;;-143.84;60.75
6032;BME280;3044;43.232;27.972;2023-12-20T04:10:43;45167.13;;;-143.84;60.54
6032;BME280;3044;43.232;27.972;2023-12-20T04:13:10;45174.75;;;-143.84;61.09
6032;BME280;3044;43.232;27.972;2023-12-20T04:15:37;45136.66;;;-143.84;60.47
6032;BME280;3044;43.232;27.972;2023-12-20T04:18:04;45180.47;;;-143.84;60.18
6032;BME280;3044;43.232;27.972;2023-12-20T04:20:31;45169.03;;;-143.84;59.32
6032;BME280;3044;43.232;27.972;2023-12-20T04:23:00;45161.41;;;-143.84;58.86
6032;BME280;3044;43.232;27.972;2023-12-20T04:25:27;45180.47;;;-143.84;59.04
6032;BME280;3044;43.232;27.972;2023-12-20T04:27:54;45188.06;;;-143.84;59.33
6032;BME280;3044;43.232;27.972;2023-12-20T04:30:21;45176.66;;;-143.84;60.07
6032;BME280;3044;43.232;27.972;2023-12-20T04:32:48;45165.22;;;-143.84;60.87
6032;BME280;3044;43.232;27.972;2023-12-20T04:35:15;45153.81;;;-143.84;60.24
6032;BME280;3044;43.232;27.972;2023-12-20T04:37:42;45197.59;;;-143.84;60.84
6032;BME280;3044;43.232;27.972;2023-12-20T04:40:11;45150.00;;;-143.84;61.06
6032;BME280;3044;43.232;27.972;2023-12-20T04:42:38;45167.13;;;-143.84;61.88
6032;BME280;3044;43.232;27.972;2023-12-20T04:45:06;45176.66;;;-143.84;62.76
6032;BME280;3044;43.232;27.972;2023-12-20T04:47:33;45195.69;;;-143.84;62.89
6032;BME280;3044;43.232;27.972;2023-12-20T04:50:00;45189.97;;;-143.84;62.81
6032;BME280;3044;43.232;27.972;2023-12-20T04:52:28;45176.66;;;-143.84;62.76
6032;BME280;3044;43.232;27.972;2023-12-20T04:54:55;45159.50;;;-143.84;63.00
6032;BME280;3044;43.232;27.972;2023-12-20T04:57:24;45146.19;;;-143.84;62.89
6032;BME280;3044;43.232;27.972;2023-12-20T04:59:51;45207.13;;;-143.84;62.83
6032;BME280;3044;43.232;27.972;2023-12-20T05:02:18;45174.75;;;-143.84;62.80
6032;BME280;3044;43.232;27.972;2023-12-20T05:04:45;45195.69;;;-143.84;62.33
6032;BME280;3044;43.232;27.972;2023-12-20T05:07:12;45178.56;;;-143.84;61.76
6032;BME280;3044;43.232;27.972;2023-12-20T05:09:39;45165.22;;;-143.84;61.88
6032;BME280;3044;43.232;27.972;2023-12-20T05:12:07;45178.56;;;-143.84;62.02
6032;BME280;3044;43.232;27.972;2023-12-20T05:14:36;45167.13;;;-143.84;61.58
6032;BME280;3044;43.232;27.972;2023-12-20T05:17:03;45189.97;;;-143.84;61.28
6032;BME280;3044;43.232;27.972;2023-12-20T05:19:30;45167.13;;;-143.84;60.99
6032;BME280;3044;43.232;27.972;2023-12-20T05:22:00;45174.75;;;-143.84;60.95
6032;BME280;3044;43.232;27.972;2023-12-20T05:24:27;45163.31;;;-143.84;60.72
6032;BME280;3044;43.232;27.972;2023-12-20T05:26:55;45169.03;;;-143.84;61.08
6032;BME280;3044;43.232;27.972;2023-12-20T05:29:22;45167.13;;;-143.84;60.67
6032;BME280;3044;43.232;27.972;2023-12-20T05:31:51;45178.56;;;-143.84;61.12
6032;BME280;3044;43.232;27.972;2023-12-20T05:34:18;45191.88;;;-143.84;61.64
6032;BME280;3044;43.232;27.972;2023-12-20T05:36:45;45142.38;;;-143.84;62.88
6032;BME280;3044;43.232;27.972;2023-12-20T05:39:13;45180.47;;;-143.84;63.25
6032;BME280;3044;43.232;27.972;2023-12-20T05:41:40;45180.47;;;-143.84;63.65
6032;BME280;3044;43.232;27.972;2023-12-20T05:44:07;45151.91;;;-143.84;64.20
6032;BME280;3044;43.232;27.972;2023-12-20T05:46:34;45188.06;;;-143.84;64.61
6032;BME280;3044;43.232;27.972;2023-12-20T05:49:02;45163.31;;;-143.84;65.33
6032;BME280;3044;43.232;27.972;2023-12-20T05:51:30;45163.31;;;-143.84;65.41
6032;BME280;3044;43.232;27.972;2023-12-20T05:53:57;45161.41;;;-143.84;65.31
6032;BME280;3044;43.232;27.972;2023-12-20T05:56:24;45184.25;;;-143.84;65.88
6032;BME280;3044;43.232;27.972;2023-12-20T05:58:51;45163.31;;;-143.84;66.13
6032;BME280;3044;43.232;27.972;2023-12-20T06:01:18;45186.16;;;-143.84;66.71
6032;BME280;3044;43.232;27.972;2023-12-20T06:03:45;45180.47;;;-143.84;68.01
6032;BME280;3044;43.232;27.972;2023-12-20T06:06:14;45178.56;;;-143.84;68.80
6032;BME280;3044;43.232;27.972;2023-12-20T06:08:41;45161.41;;;-143.84;69.48
6032;BME280;3044;43.232;27.972;2023-12-20T06:11:09;45189.97;;;-143.84;70.14
6032;BME280;3044;43.232;27.972;2023-12-20T06:13:36;45170.94;;;-143.84;70.86
6032;BME280;3044;43.232;27.972;2023-12-20T06:16:05;45174.75;;;-143.84;71.63
6032;BME280;3044;43.232;27.972;2023-12-20T06:18:32;45186.16;;;-143.84;73.35
6032;BME280;3044;43.232;27.972;2023-12-20T06:20:59;45165.22;;;-143.84;73.08
6032;BME280;3044;43.232;27.972;2023-12-20T06:23:28;45172.84;;;-143.84;72.85
6032;BME280;3044;43.232;27.972;2023-12-20T06:25:55;45180.47;;;-143.84;72.12
6032;BME280;3044;43.232;27.972;2023-12-20T06:28:22;45153.81;;;-143.84;71.41
6032;BME280;3044;43.232;27.972;2023-12-20T06:30:49;45180.47;;;-143.84;71.16
6032;BME280;3044;43.232;27.972;2023-12-20T06:33:18;45188.06;;;-143.84;70.38
6032;BME280;3044;43.232;27.972;2023-12-20T06:35:47;45170.94;;;-143.84;70.36
6032;BME280;3044;43.232;27.972;2023-12-20T06:38:14;45186.16;;;-143.84;69.54
6032;BME280;3044;43.232;27.972;2023-12-20T06:40:42;45174.75;;;-143.84;68.46
6032;BME280;3044;43.232;27.972;2023-12-20T06:43:10;45170.94;;;-143.84;67.81
6032;BME280;3044;43.232;27.972;2023-12-20T06:45:37;45174.75;;;-143.84;67.38
6032;BME280;3044;43.232;27.972;2023-12-20T06:48:05;45191.88;;;-143.84;66.61
6032;BME280;3044;43.232;27.972;2023-12-20T06:50:32;45186.16;;;-143.84;66.50
6032;BME280;3044;43.232;27.972;2023-12-20T06:52:59;45188.06;;;-143.84;66.57
6032;BME280;3044;43.232;27.972;2023-12-20T06:55:32;45151.91;;;-143.84;66.87
6032;BME280;3044;43.232;27.972;2023-12-20T06:58:01;45165.22;;;-143.84;66.72
6032;BME280;3044;43.232;27.972;2023-12-20T07:00:28;45159.50;;;-143.84;67.50
6032;BME280;3044;43.232;27.972;2023-12-20T07:02:55;45155.69;;;-143.84;67.33
6032;BME280;3044;43.232;27.972;2023-12-20T07:05:22;45157.59;;;-143.84;65.85
6032;BME280;3044;43.232;27.972;2023-12-20T07:07:49;45178.56;;;-143.84;64.14
6032;BME280;3044;43.232;27.972;2023-12-20T07:10:17;45136.66;;;-143.84;62.29
6032;BME280;3044;43.232;27.972;2023-12-20T07:12:44;45184.25;;;-143.84;61.21
6032;BME280;3044;43.232;27.972;2023-12-20T07:15:12;45134.75;;;-143.84;62.24
6032;BME280;3044;43.232;27.972;2023-12-20T07:17:39;45163.31;;;-143.84;60.59
6032;BME280;3044;43.232;27.972;2023-12-20T07:20:08;45163.31;;;-143.84;59.14
6032;BME280;3044;43.232;27.972;2023-12-20T07:22:36;45155.69;;;-143.84;57.48
6032;BME280;3044;43.232;27.972;2023-12-20T07:25:04;45148.09;;;-143.84;58.10
6032;BME280;3044;43.232;27.972;2023-12-20T07:27:31;45153.81;;;-143.84;55.83
6032;BME280;3044;43.232;27.972;2023-12-20T07:29:59;45150.00;;;-143.84;53.57
6032;BME280;3044;43.232;27.972;2023-12-20T07:32:27;45155.69;;;-143.84;51.69
6032;BME280;3044;43.232;27.972;2023-12-20T07:34:55;45153.81;;;-143.84;50.61
6032;BME280;3044;43.232;27.972;2023-12-20T07:37:22;45134.75;;;-143.84;48.63
6032;BME280;3044;43.232;27.972;2023-12-20T07:39:49;45170.94;;;-143.84;48.34
6032;BME280;3044;43.232;27.972;2023-12-20T07:42:16;45132.84;;;-143.84;49.33
6032;BME280;3044;43.232;27.972;2023-12-20T07:44:43;45151.91;;;-143.84;47.65
6032;BME280;3044;43.232;27.972;2023-12-20T07:47:10;45140.47;;;-143.84;46.43
6032;BME280;3044;43.232;27.972;2023-12-20T07:49:42;45136.66;;;-143.84;47.77
6032;BME280;3044;43.232;27.972;2023-12-20T07:52:09;45134.75;;;-143.84;47.39
6032;BME280;3044;43.232;27.972;2023-12-20T07:54:36;45159.50;;;-143.84;45.73
6032;BME280;3044;43.232;27.972;2023-12-20T07:57:04;45140.47;;;-143.84;45.15
6032;BME280;3044;43.232;27.972;2023-12-20T07:59:31;45127.13;;;-143.84;45.64
6032;BME280;3044;43.232;27.972;2023-12-20T08:01:58;45125.22;;;-143.84;45.34
6032;BME280;3044;43.232;27.972;2023-12-20T08:04:25;45125.22;;;-143.84;43.89
6032;BME280;3044;43.232;27.972;2023-12-20T08:06:54;45151.91;;;-143.84;43.64
6032;BME280;3044;43.232;27.972;2023-12-20T08:09:21;45125.22;;;-143.84;44.00
6032;BME280;3044;43.232;27.972;2023-12-20T08:11:48;45134.75;;;-143.84;43.64
6032;BME280;3044;43.232;27.972;2023-12-20T08:14:16;45134.75;;;-143.84;43.53
6032;BME280;3044;43.232;27.972;2023-12-20T08:16:43;45115.72;;;-143.84;43.12
6032;BME280;3044;43.232;27.972;2023-12-20T08:19:10;45132.84;;;-143.84;42.86
6032;BME280;3044;43.232;27.972;2023-12-20T08:21:37;45142.38;;;-143.84;43.13
6032;BME280;3044;43.232;27.972;2023-12-20T08:24:08;45129.03;;;-143.84;42.03
6032;BME280;3044;43.232;27.972;2023-12-20T08:26:35;45115.72;;;-143.84;42.76
6032;BME280;3044;43.232;27.972;2023-12-20T08:29:02;45127.13;;;-143.84;42.82
6032;BME280;3044;43.232;27.972;2023-12-20T08:31:29;45113.81;;;-143.84;40.95
6032;BME280;3044;43.232;27.972;2023-12-20T08:33:56;45111.91;;;-143.84;41.05
6032;BME280;3044;43.232;27.972;2023-12-20T08:36:23;45115.72;;;-143.84;42.55
6032;BME280;3044;43.232;27.972;2023-12-20T08:38:51;45106.19;;;-143.84;39.88
6032;BME280;3044;43.232;27.972;2023-12-20T08:41:19;45134.75;;;-143.84;40.12
6032;BME280;3044;43.232;27.972;2023-12-20T08:43:47;45115.72;;;-143.84;39.56
6032;BME280;3044;43.232;27.972;2023-12-20T08:46:15;45129.03;;;-143.84;38.88
6032;BME280;3044;43.232;27.972;2023-12-20T08:48:42;45125.22;;;-143.84;39.89
6032;BME280;3044;43.232;27.972;2023-12-20T08:51:10;45104.28;;;-143.84;38.16
6032;BME280;3044;43.232;27.972;2023-12-20T08:53:37;45098.56;;;-143.84;39.59
6032;BME280;3044;43.232;27.972;2023-12-20T08:56:04;45096.66;;;-143.84;39.18
6032;BME280;3044;43.232;27.972;2023-12-20T08:58:33;45123.34;;;-143.84;38.88
6032;BME280;3044;43.232;27.972;2023-12-20T09:01:01;45110.00;;;-143.84;39.06
6032;BME280;3044;43.232;27.972;2023-12-20T09:03:28;45098.56;;;-143.84;39.15
6032;BME280;3044;43.232;27.972;2023-12-20T09:05:55;45123.34;;;-143.84;39.54
6032;BME280;3044;43.232;27.972;2023-12-20T09:08:23;45110.00;;;-143.84;39.02
6032;BME280;3044;43.232;27.972;2023-12-20T09:10:50;45106.19;;;-143.84;39.52
6032;BME280;3044;43.232;27.972;2023-12-20T09:13:17;45110.00;;;-143.84;38.69
6032;BME280;3044;43.232;27.972;2023-12-20T09:15:45;45123.34;;;-143.84;39.22
6032;BME280;3044;43.232;27.972;2023-12-20T09:18:13;45123.34;;;-143.84;38.28
6032;BME280;3044;43.232;27.972;2023-12-20T09:20:40;45113.81;;;-143.84;38.99
6032;BME280;3044;43.232;27.972;2023-12-20T09:23:07;45110.00;;;-143.84;38.77
6032;BME280;3044;43.232;27.972;2023-12-20T09:25:34;45106.19;;;-143.84;38.50
6032;BME280;3044;43.232;27.972;2023-12-20T09:28:01;45108.09;;;-143.84;38.75
6032;BME280;3044;43.232;27.972;2023-12-20T09:30:28;45104.28;;;-143.84;38.61
6032;BME280;3044;43.232;27.972;2023-12-20T09:32:57;45121.44;;;-143.84;38.68
6032;BME280;3044;43.232;27.972;2023-12-20T09:35:24;45098.56;;;-143.84;38.58
6032;BME280;3044;43.232;27.972;2023-12-20T09:37:51;45117.63;;;-143.84;38.12
6032;BME280;3044;43.232;27.972;2023-12-20T09:40:19;45110.00;;;-143.84;37.92
6032;BME280;3044;43.232;27.972;2023-12-20T09:42:48;45123.34;;;-143.84;38.35
6032;BME280;3044;43.232;27.972;2023-12-20T09:45:20;45127.13;;;-143.84;38.20
6032;BME280;3044;43.232;27.972;2023-12-20T09:47:48;45111.91;;;-143.84;38.40
6032;BME280;3044;43.232;27.972;2023-12-20T09:50:18;45085.25;;;-143.84;37.88
6032;BME280;3044;43.232;27.972;2023-12-20T09:52:49;45068.13;;;-143.84;38.21
6032;BME280;3044;43.232;27.972;2023-12-20T09:55:17;45090.97;;;-143.84;38.01
6032;BME280;3044;43.232;27.972;2023-12-20T09:57:45;45094.78;;;-143.84;37.61
6032;BME280;3044;43.232;27.972;2023-12-20T10:00:14;45090.97;;;-143.84;38.38
6032;BME280;3044;43.232;27.972;2023-12-20T10:02:59;45106.19;;;-143.84;38.32
6032;BME280;3044;43.232;27.972;2023-12-20T10:05:28;45073.81;;;-143.84;37.75
6032;BME280;3044;43.232;27.972;2023-12-20T10:07:56;45094.78;;;-143.84;37.00
6032;BME280;3044;43.232;27.972;2023-12-20T10:10:23;45081.44;;;-143.84;37.51
6032;BME280;3044;43.232;27.972;2023-12-20T10:13:04;45096.66;;;-143.84;36.59
6032;BME280;3044;43.232;27.972;2023-12-20T10:15:32;45111.91;;;-143.84;36.61
6032;BME280;3044;43.232;27.972;2023-12-20T10:18:00;45079.53;;;-143.84;37.09
6032;BME280;3044;43.232;27.972;2023-12-20T10:20:30;45077.63;;;-143.84;37.53
6032;BME280;3044;43.232;27.972;2023-12-20T10:22:58;45117.63;;;-143.84;38.82
6032;BME280;3044;43.232;27.972;2023-12-20T10:25:25;45110.00;;;-143.84;37.68
6032;BME280;3044;43.232;27.972;2023-12-20T10:28:11;45092.88;;;-143.84;37.81
6032;BME280;3044;43.232;27.972;2023-12-20T10:30:38;45100.47;;;-143.84;38.04
6032;BME280;3044;43.232;27.972;2023-12-20T10:33:06;45092.88;;;-143.84;38.55
6032;BME280;3044;43.232;27.972;2023-12-20T10:35:35;45098.56;;;-143.84;39.34
6032;BME280;3044;43.232;27.972;2023-12-20T10:38:04;45094.78;;;-143.84;39.77
6032;BME280;3044;43.232;27.972;2023-12-20T10:40:34;45087.16;;;-143.84;39.96
6032;BME280;3044;43.232;27.972;2023-12-20T10:43:03;45115.72;;;-143.84;37.92
6032;BME280;3044;43.232;27.972;2023-12-20T10:45:30;45102.38;;;-143.84;38.31
6032;BME280;3044;43.232;27.972;2023-12-20T10:47:58;45117.63;;;-143.84;37.89
6032;BME280;3044;43.232;27.972;2023-12-20T10:50:27;45104.28;;;-143.84;39.12
6032;BME280;3044;43.232;27.972;2023-12-20T10:52:57;45085.25;;;-143.84;38.34
6032;BME280;3044;43.232;27.972;2023-12-20T10:55:24;45110.00;;;-143.84;38.49
6032;BME280;3044;43.232;27.972;2023-12-20T10:57:53;45092.88;;;-143.84;39.05
6032;BME280;3044;43.232;27.972;2023-12-20T11:00:22;45081.44;;;-143.84;39.74
6032;BME280;3044;43.232;27.972;2023-12-20T11:02:51;45081.44;;;-143.84;38.41
6032;BME280;3044;43.232;27.972;2023-12-20T11:05:26;45110.00;;;-143.84;38.61
6032;BME280;3044;43.232;27.972;2023-12-20T11:08:00;45079.53;;;-143.84;37.97
6032;BME280;3044;43.232;27.972;2023-12-20T11:10:34;45089.06;;;-143.84;39.10
6032;BME280;3044;43.232;27.972;2023-12-20T11:13:08;45100.47;;;-143.84;39.48
6032;BME280;3044;43.232;27.972;2023-12-20T11:15:37;45102.38;;;-143.84;39.22
6032;BME280;3044;43.232;27.972;2023-12-20T11:18:05;45070.00;;;-143.84;38.70
6032;BME280;3044;43.232;27.972;2023-12-20T11:20:36;45081.44;;;-143.84;39.11
6032;BME280;3044;43.232;27.972;2023-12-20T11:23:06;45102.38;;;-143.84;40.22
6032;BME280;3044;43.232;27.972;2023-12-20T11:25:47;45098.56;;;-143.84;40.26
6032;BME280;3044;43.232;27.972;2023-12-20T11:28:14;45081.44;;;-143.84;41.23
6032;BME280;3044;43.232;27.972;2023-12-20T11:30:47;45111.91;;;-143.84;42.39
6032;BME280;3044;43.232;27.972;2023-12-20T11:33:15;45110.00;;;-143.84;43.87
6032;BME280;3044;43.232;27.972;2023-12-20T11:35:42;45102.38;;;-143.84;43.66
6032;BME280;3044;43.232;27.972;2023-12-20T11:38:12;45117.63;;;-143.84;45.83
6032;BME280;3044;43.232;27.972;2023-12-20T11:40:41;45110.00;;;-143.84;47.45
6032;BME280;3044;43.232;27.972;2023-12-20T11:43:09;45108.09;;;-143.84;47.08
6032;BME280;3044;43.232;27.972;2023-12-20T11:45:36;45100.47;;;-143.84;48.51
6032;BME280;3044;43.232;27.972;2023-12-20T11:48:03;45138.56;;;-143.84;48.27
6032;BME280;3044;43.232;27.972;2023-12-20T11:50:31;45100.47;;;-143.84;47.88
6032;BME280;3044;43.232;27.972;2023-12-20T11:52:58;45117.63;;;-143.84;48.29
6032;BME280;3044;43.232;27.972;2023-12-20T11:55:27;45092.88;;;-143.84;49.50
6032;BME280;3044;43.232;27.972;2023-12-20T11:57:54;45110.00;;;-143.84;48.46
6032;BME280;3044;43.232;27.972;2023-12-20T12:00:21;45125.22;;;-143.84;45.55
6032;BME280;3044;43.232;27.972;2023-12-20T12:02:58;45121.44;;;-143.84;45.10
6032;BME280;3044;43.232;27.972;2023-12-20T12:05:27;45087.16;;;-143.84;44.66
6032;BME280;3044;43.232;27.972;2023-12-20T12:07:54;45111.91;;;-143.84;44.92
6032;BME280;3044;43.232;27.972;2023-12-20T12:10:21;45098.56;;;-143.84;44.96
6032;BME280;3044;43.232;27.972;2023-12-20T12:12:50;45121.44;;;-143.84;46.82
6032;BME280;3044;43.232;27.972;2023-12-20T12:15:17;45106.19;;;-143.84;48.72
6032;BME280;3044;43.232;27.972;2023-12-20T12:17:52;45087.16;;;-143.84;49.48
6032;BME280;3044;43.232;27.972;2023-12-20T12:20:20;45100.47;;;-143.84;50.21
6032;BME280;3044;43.232;27.972;2023-12-20T12:22:57;45117.63;;;-143.84;51.92
6032;BME280;3044;43.232;27.972;2023-12-20T12:25:24;45108.09;;;-143.84;50.95
6032;BME280;3044;43.232;27.972;2023-12-20T12:27:53;45125.22;;;-143.84;52.80
6032;BME280;3044;43.232;27.972;2023-12-20T12:30:20;45127.13;;;-143.84;51.18
6032;BME280;3044;43.232;27.972;2023-12-20T12:32:47;45130.94;;;-143.84;50.96
6032;BME280;3044;43.232;27.972;2023-12-20T12:35:14;45123.34;;;-143.84;50.85
6032;BME280;3044;43.232;27.972;2023-12-20T12:37:42;45110.00;;;-143.84;52.43
6032;BME280;3044;43.232;27.972;2023-12-20T12:40:10;45119.53;;;-143.84;49.47
6032;BME280;3044;43.232;27.972;2023-12-20T12:42:39;45140.47;;;-143.84;51.19
6032;BME280;3044;43.232;27.972;2023-12-20T12:45:08;45134.75;;;-143.84;51.02
6032;BME280;3044;43.232;27.972;2023-12-20T12:47:37;45130.94;;;-143.84;52.16
6032;BME280;3044;43.232;27.972;2023-12-20T12:50:05;45140.47;;;-143.84;52.42
6032;BME280;3044;43.232;27.972;2023-12-20T12:52:32;45100.47;;;-143.84;53.74
6032;BME280;3044;43.232;27.972;2023-12-20T12:55:00;45117.63;;;-143.84;57.31